createdAt,value
2019-01-20T00:01:47.334Z,27.58
2019-01-20T00:04:28.380Z,26.77
2019-01-20T00:07:04.686Z,30.30
2019-01-20T00:09:44.087Z,28.65
2019-01-20T00:12:23.408Z,23.67
2019-01-20T00:15:11.296Z,32.70
2019-01-20T00:17:48.570Z,29.92
2019-01-20T00:20:26.773Z,29.45
2019-01-20T00:23:12.339Z,28.90
2019-01-20T00:25:59.257Z,26.97
2019-01-20T00:28:34.032Z,29.77
2019-01-20T00:31:10.378Z,37.75
2019-01-20T00:33:51.357Z,35.80
2019-01-20T00:36:28.230Z,36.20
2019-01-20T00:39:09.709Z,36.70
2019-01-20T00:41:45.736Z,42.55
2019-01-20T00:44:21.217Z,37.35
2019-01-20T00:46:56.599Z,31.02
2019-01-20T00:49:32.429Z,25.65
2019-01-20T00:52:11.188Z,34.50
2019-01-20T00:54:50.068Z,29.32
2019-01-20T00:57:30.786Z,23.20
2019-01-20T01:00:11.688Z,25.43
2019-01-20T01:02:53.068Z,26.97
2019-01-20T01:05:30.668Z,32.83
2019-01-20T01:08:10.978Z,32.28
2019-01-20T01:10:47.714Z,30.23
2019-01-20T01:18:26.165Z,31.07
2019-01-20T01:21:08.799Z,34.98
2019-01-20T01:23:46.025Z,32.70
2019-01-20T01:26:21.304Z,29.48
2019-01-20T01:28:57.878Z,30.57
2019-01-20T01:31:32.719Z,34.48
2019-01-20T01:34:09.520Z,33.40
2019-01-20T01:36:49.784Z,34.25
2019-01-20T01:39:29.328Z,41.02
2019-01-20T01:42:05.428Z,39.48
2019-01-20T01:44:52.395Z,33.55
2019-01-20T01:47:27.330Z,26.87
2019-01-20T01:50:03.961Z,32.13
2019-01-20T01:52:41.367Z,29.42
2019-01-20T01:55:17.184Z,39.38
2019-01-20T01:57:55.350Z,28.75
2019-01-20T02:00:30.677Z,29.50
2019-01-20T02:06:07.562Z,33.13
2019-01-20T02:08:43.569Z,32.80
2019-01-20T02:11:20.279Z,36.42
2019-01-20T02:14:03.214Z,28.27
2019-01-20T02:16:40.510Z,30.72
2019-01-20T02:19:17.642Z,31.55
2019-01-20T02:22:03.752Z,39.03
2019-01-20T02:24:39.574Z,34.05
2019-01-20T02:27:16.226Z,34.45
2019-01-20T02:29:51.249Z,29.07
2019-01-20T02:32:26.282Z,31.95
2019-01-20T02:35:03.273Z,28.95
2019-01-20T02:37:38.710Z,30.17
2019-01-20T02:40:15.031Z,28.98
2019-01-20T02:42:52.125Z,36.77
2019-01-20T02:45:30.782Z,32.28
2019-01-20T02:48:06.129Z,31.40
2019-01-20T02:50:51.860Z,28.85
2019-01-20T02:53:27.338Z,30.82
2019-01-20T02:56:03.935Z,28.12
2019-01-20T02:58:44.620Z,33.98
2019-01-20T03:01:31.620Z,30.85
2019-01-20T03:04:13.852Z,32.98
2019-01-20T03:06:49.398Z,30.72
2019-01-20T03:09:24.772Z,32.48
2019-01-20T03:12:04.300Z,26.30
2019-01-20T03:14:39.878Z,30.23
2019-01-20T03:17:17.172Z,32.58
2019-01-20T03:19:53.823Z,29.60
2019-01-20T03:22:28.836Z,25.85
2019-01-20T03:28:00.397Z,28.90
2019-01-20T03:30:37.588Z,28.30
2019-01-20T03:33:13.202Z,27.07
2019-01-20T03:35:51.288Z,28.17
2019-01-20T03:38:25.995Z,32.95
2019-01-20T03:41:03.861Z,31.87
2019-01-20T03:43:39.067Z,32.45
2019-01-20T03:46:14.130Z,29.67
2019-01-20T03:48:49.561Z,32.58
2019-01-20T03:51:25.025Z,35.10
2019-01-20T03:54:01.171Z,29.82
2019-01-20T03:56:38.445Z,35.00
2019-01-20T03:59:19.088Z,31.62
2019-01-20T04:01:54.571Z,32.40
2019-01-20T04:04:31.051Z,30.72
2019-01-20T04:07:09.585Z,34.48
2019-01-20T04:09:44.662Z,37.13
2019-01-20T04:12:20.711Z,30.97
2019-01-20T04:14:56.401Z,31.40
2019-01-20T04:17:32.798Z,29.60
2019-01-20T04:20:14.337Z,30.43
2019-01-20T04:22:50.900Z,32.78
2019-01-20T04:25:29.122Z,29.98
2019-01-20T04:28:04.504Z,36.93
2019-01-20T04:30:40.622Z,29.98
2019-01-20T04:33:20.163Z,28.73
2019-01-20T04:35:57.425Z,26.23
2019-01-20T04:38:37.135Z,31.10
2019-01-20T04:41:18.158Z,34.45
2019-01-20T04:44:02.784Z,28.70
2019-01-20T04:46:40.670Z,30.50
2019-01-20T04:49:19.356Z,32.95
2019-01-20T04:51:55.801Z,38.78
2019-01-20T04:54:32.259Z,28.07
2019-01-20T04:57:08.461Z,30.97
2019-01-20T04:59:44.296Z,31.60
2019-01-20T05:02:20.576Z,30.35
2019-01-20T05:04:57.942Z,30.55
2019-01-20T05:07:36.688Z,32.25
2019-01-20T05:10:15.259Z,31.42
2019-01-20T05:12:51.008Z,33.13
2019-01-20T05:15:26.774Z,34.95
2019-01-20T05:18:03.355Z,28.35
2019-01-20T05:20:44.047Z,31.68
2019-01-20T05:23:19.624Z,34.05
2019-01-20T05:25:59.404Z,34.30
2019-01-20T05:28:34.019Z,34.33
2019-01-20T05:31:14.773Z,30.82
2019-01-20T05:33:50.318Z,35.10
2019-01-20T05:36:25.308Z,43.50
2019-01-20T05:39:04.234Z,35.88
2019-01-20T05:41:39.815Z,32.73
2019-01-20T05:44:15.109Z,32.83
2019-01-20T05:46:52.699Z,41.80
2019-01-20T05:49:28.026Z,34.15
2019-01-20T05:52:07.223Z,35.45
2019-01-20T05:54:44.084Z,34.00
2019-01-20T05:57:19.674Z,38.00
2019-01-20T05:59:59.134Z,35.10
2019-01-20T06:02:35.019Z,32.28
2019-01-20T06:05:11.384Z,34.78
2019-01-20T06:07:48.736Z,37.23
2019-01-20T06:10:24.812Z,40.33
2019-01-20T06:13:02.075Z,46.33
2019-01-20T06:15:49.996Z,44.95
2019-01-20T06:18:35.010Z,42.93
2019-01-20T06:21:12.542Z,35.95
2019-01-20T06:23:45.512Z,35.85
2019-01-20T06:26:20.972Z,33.92
2019-01-20T06:28:57.094Z,36.85
2019-01-20T06:31:32.309Z,36.10
2019-01-20T06:34:08.978Z,39.40
2019-01-20T06:36:45.965Z,37.58
2019-01-20T06:39:21.520Z,34.88
2019-01-20T06:42:00.903Z,35.45
2019-01-20T06:44:35.620Z,43.63
2019-01-20T06:47:16.718Z,41.10
2019-01-20T06:49:51.835Z,35.10
2019-01-20T06:52:28.094Z,33.85
2019-01-20T06:55:05.316Z,38.67
2019-01-20T06:57:45.817Z,37.10
2019-01-20T07:00:27.150Z,42.88
2019-01-20T07:03:02.787Z,39.67
2019-01-20T07:05:35.526Z,39.03
2019-01-20T07:08:13.843Z,33.65
2019-01-20T07:10:48.846Z,33.35
2019-01-20T07:13:23.702Z,34.50
2019-01-20T07:15:58.737Z,41.28
2019-01-20T07:18:34.716Z,39.45
2019-01-20T07:21:11.912Z,32.35
2019-01-20T07:23:46.531Z,36.20
2019-01-20T07:26:21.601Z,40.00
2019-01-20T07:28:56.372Z,36.40
2019-01-20T07:31:32.223Z,39.00
2019-01-20T07:34:09.377Z,41.68
2019-01-20T07:36:44.622Z,42.15
2019-01-20T07:39:20.863Z,43.73
2019-01-20T07:41:55.613Z,38.95
2019-01-20T07:44:31.442Z,52.55
2019-01-20T07:47:06.779Z,47.65
2019-01-20T07:49:39.644Z,54.60
2019-01-20T07:52:14.643Z,44.15
2019-01-20T07:54:48.045Z,40.43
2019-01-20T07:57:23.777Z,35.75
2019-01-20T07:59:59.300Z,40.83
2019-01-20T08:02:33.993Z,33.42
2019-01-20T08:05:08.078Z,41.30
2019-01-20T08:07:43.529Z,34.45
2019-01-20T08:10:20.103Z,38.92
2019-01-20T08:12:55.130Z,35.60
2019-01-20T08:15:30.308Z,41.83
2019-01-20T08:18:09.636Z,48.90
2019-01-20T08:20:42.753Z,43.30
2019-01-20T08:23:17.804Z,40.88
2019-01-20T08:25:53.434Z,33.13
2019-01-20T08:28:28.574Z,35.13
2019-01-20T08:31:04.169Z,36.33
2019-01-20T08:33:40.916Z,33.58
2019-01-20T08:36:17.174Z,40.12
2019-01-20T08:38:52.708Z,30.80
2019-01-20T08:41:28.046Z,35.68
2019-01-20T08:44:02.995Z,44.23
2019-01-20T08:46:44.876Z,41.37
2019-01-20T08:49:20.274Z,49.67
2019-01-20T08:51:58.080Z,50.43
2019-01-20T08:54:34.317Z,47.15
2019-01-20T08:57:09.975Z,45.03
2019-01-20T08:59:45.617Z,43.17
2019-01-20T09:02:23.472Z,38.00
2019-01-20T09:04:58.967Z,38.45
2019-01-20T09:07:33.925Z,41.60
2019-01-20T09:10:18.158Z,39.80
2019-01-20T09:13:01.193Z,40.55
2019-01-20T09:27:14.823Z,37.42
2019-01-20T09:30:02.594Z,43.92
2019-01-20T09:32:42.054Z,43.80
2019-01-20T09:35:28.469Z,40.95
2019-01-20T09:41:12.899Z,43.90
2019-01-20T09:43:57.757Z,47.25
2019-01-20T09:46:47.825Z,39.65
2019-01-20T09:55:28.542Z,34.35
2019-01-20T09:58:04.635Z,40.95
2019-01-20T10:00:52.843Z,40.48
2019-01-20T12:30:19.069Z,32.70
2019-01-20T12:33:05.952Z,27.00
2019-01-20T12:35:41.081Z,28.17
2019-01-20T12:38:24.343Z,27.22
2019-01-20T12:41:02.864Z,27.17
2019-01-20T12:43:41.807Z,21.15
2019-01-20T12:46:21.164Z,27.73
2019-01-20T12:54:57.485Z,20.68
2019-01-20T12:57:36.998Z,20.05
2019-01-20T13:42:58.572Z,24.55
2019-01-20T14:35:53.332Z,28.67
2019-01-20T14:38:36.769Z,27.87
2019-01-20T14:41:20.116Z,24.05
2019-01-20T14:47:02.851Z,20.95
2019-01-20T14:49:41.933Z,25.50
2019-01-20T14:52:16.678Z,23.32
2019-01-20T14:54:53.739Z,24.27
2019-01-20T14:57:28.979Z,27.15
2019-01-20T15:27:31.339Z,26.75
2019-01-20T16:28:08.477Z,37.03
2019-01-20T16:33:57.056Z,36.65
2019-01-20T17:34:19.227Z,46.77
2019-01-20T17:36:56.243Z,40.33
2019-01-20T17:39:45.659Z,40.52
2019-01-20T17:51:21.800Z,54.55
2019-01-20T17:54:01.070Z,54.53
2019-01-20T17:59:50.280Z,53.28
2019-01-20T18:02:44.458Z,43.80
2019-01-20T18:15:18.214Z,57.67
2019-01-20T18:21:12.259Z,50.10
2019-01-20T18:26:59.666Z,56.20
2019-01-20T18:37:46.551Z,46.00
2019-01-20T18:40:27.323Z,47.15
2019-01-20T18:43:10.638Z,58.98
2019-01-20T18:45:49.798Z,53.02
2019-01-20T19:12:36.092Z,51.33
2019-01-20T19:15:23.304Z,49.75
2019-01-20T19:18:05.380Z,49.60
2019-01-20T19:20:51.404Z,49.58
2019-01-20T19:23:33.053Z,46.85
2019-01-20T19:26:16.965Z,43.85
2019-01-20T19:28:54.576Z,47.53
2019-01-20T19:31:38.453Z,50.48
2019-01-20T19:46:29.191Z,49.73
2019-01-20T19:52:23.379Z,51.65
2019-01-20T20:04:18.764Z,49.90
2019-01-20T20:10:16.115Z,46.60
2019-01-20T20:52:09.183Z,57.35
2019-01-20T21:31:29.380Z,58.52
